Time;durP1;ratioP1;P1;durP2;ratioP2;P2;SDS_P1;SDS_P2;PMS_P1;PMS_P2;Temp;Humidity;BMP_temperature;BMP_pressure;BME280_temperature;BME280_humidity;BME280_pressure;Samples;Min_cycle;Max_cycle;Signal;HPM_P1;HPM_P2
2021/12/27 00:00:52;;;;;;;;;4.00;3.00;;;;;12.67;75.86;99371.19;5105752;27;45810;-78
2021/12/27 00:03:18;;;;;;;;;4.00;3.00;;;;;12.65;76.06;99362.63;5092915;27;45576;-79
2021/12/27 00:05:43;;;;;;;;;4.00;3.00;;;;;12.70;75.92;99365.63;5095535;27;46330;-79
2021/12/27 00:08:08;;;;;;;;;2.00;2.00;;;;;12.72;75.83;99363.66;5109211;27;47279;-80
2021/12/27 00:10:34;;;;;;;;;1.75;1.00;;;;;12.70;75.91;99352.47;5098451;27;45765;-79
2021/12/27 00:13:02;;;;;;;;;3.00;2.00;;;;;12.73;75.89;99341.69;5103745;27;45641;-80
2021/12/27 00:15:28;;;;;;;;;2.00;1.00;;;;;12.71;76.15;99341.00;5092664;27;46377;-80
2021/12/27 00:17:54;;;;;;;;;2.00;2.00;;;;;12.73;75.98;99341.69;5100090;27;47235;-80
2021/12/27 00:20:20;;;;;;;;;3.00;2.00;;;;;12.73;75.83;99344.31;5098469;27;46072;-79
2021/12/27 00:22:48;;;;;;;;;1.75;1.00;;;;;12.73;75.86;99347.75;5098369;27;45570;-79
2021/12/27 00:25:15;;;;;;;;;2.25;1.00;;;;;12.73;75.80;99337.25;5112941;27;46282;-77
2021/12/27 00:27:40;;;;;;;;;2.50;1.00;;;;;12.69;75.92;99328.00;5098987;27;47914;-80
2021/12/27 00:30:07;;;;;;;;;2.50;2.00;;;;;12.75;75.65;99343.16;5101308;27;45604;-78
2021/12/27 00:32:36;;;;;;;;;3.00;1.00;;;;;12.76;76.13;99333.47;5115695;27;45647;-78
2021/12/27 00:35:03;;;;;;;;;0.75;0.75;;;;;12.77;76.00;99327.25;5095810;27;45757;-79
2021/12/27 00:37:28;;;;;;;;;0.00;0.00;;;;;12.76;76.28;99326.41;5096195;27;46958;-79
2021/12/27 00:39:54;;;;;;;;;2.00;2.00;;;;;12.76;76.00;99329.03;5076804;27;45614;-78
2021/12/27 00:42:19;;;;;;;;;1.50;1.00;;;;;12.77;76.10;99330.69;5096790;27;45742;-79
2021/12/27 00:44:44;;;;;;;;;1.50;1.50;;;;;12.77;75.88;99327.25;5095884;27;46228;-79
2021/12/27 00:47:09;;;;;;;;;5.00;2.00;;;;;12.76;76.28;99331.66;5077373;27;48204;-78
2021/12/27 00:49:35;;;;;;;;;3.00;2.00;;;;;12.66;75.74;99311.72;5101103;27;45614;-78
2021/12/27 00:52:00;;;;;;;;;2.75;2.75;;;;;12.76;76.14;99325.59;5108680;27;45671;-79
2021/12/27 00:54:26;;;;;;;;;3.75;2.00;;;;;12.77;76.25;99316.72;5095424;27;46372;-78
2021/12/27 00:56:51;;;;;;;;;1.00;1.00;;;;;12.70;76.17;99310.44;5101095;27;46182;-76
2021/12/27 00:59:17;;;;;;;;;1.00;1.00;;;;;12.72;76.34;99319.00;5094868;27;46165;-79
2021/12/27 01:01:42;;;;;;;;;2.25;2.00;;;;;12.72;75.78;99325.09;5095778;27;45792;-75
2021/12/27 01:04:08;;;;;;;;;3.00;2.00;;;;;12.75;75.80;99323.94;5095416;27;45715;-75
2021/12/27 01:06:34;;;;;;;;;2.00;1.00;;;;;12.76;76.21;99320.34;5097640;27;48171;-75
2021/12/27 01:09:00;;;;;;;;;2.00;2.00;;;;;12.69;76.16;99311.41;5100038;27;45798;-75
2021/12/27 01:11:37;;;;;;;;;1.00;1.00;;;;;12.73;76.13;99320.66;5103874;27;45809;-75
2021/12/27 01:14:10;;;;;;;;;1.00;0.75;;;;;12.63;75.78;99300.53;5099079;27;46486;-76
2021/12/27 01:16:36;;;;;;;;;1.00;0.75;;;;;12.74;76.39;99306.53;5095241;27;46254;-74
2021/12/27 01:19:02;;;;;;;;;1.00;1.00;;;;;12.75;76.30;99311.63;5099448;27;46992;-76
2021/12/27 01:21:27;;;;;;;;;2.00;0.75;;;;;12.76;75.96;99309.81;5093877;27;45845;-77
2021/12/27 01:23:54;;;;;;;;;1.00;0.75;;;;;12.75;76.09;99306.38;5105602;27;46319;-77
2021/12/27 01:26:20;;;;;;;;;1.00;1.00;;;;;12.75;75.78;99303.72;5095395;27;45928;-79
2021/12/27 01:28:46;;;;;;;;;2.50;0.25;;;;;12.76;75.96;99296.69;5094742;27;45972;-78
2021/12/27 01:31:12;;;;;;;;;1.50;0.25;;;;;12.78;76.15;99290.31;5104194;27;45587;-77
2021/12/27 01:33:38;;;;;;;;;3.00;3.00;;;;;12.80;75.79;99296.22;5101423;27;46470;-77
2021/12/27 01:36:07;;;;;;;;;3.00;2.00;;;;;12.82;75.73;99288.19;5104742;27;46965;-77
2021/12/27 01:38:37;;;;;;;;;1.25;1.25;;;;;12.83;75.83;99287.19;5094349;27;45695;-78
2021/12/27 01:41:05;;;;;;;;;1.75;1.75;;;;;12.82;75.91;99281.13;5095879;27;45871;-75
2021/12/27 01:43:32;;;;;;;;;1.00;1.00;;;;;12.81;76.06;99278.63;5108770;27;45599;-77
2021/12/27 01:46:07;;;;;;;;;1.00;1.00;;;;;12.84;75.71;99284.44;5094910;27;46176;-76
2021/12/27 01:48:38;;;;;;;;;2.00;2.00;;;;;12.85;75.96;99280.78;5094274;27;45601;-76
2021/12/27 01:51:06;;;;;;;;;3.00;1.00;;;;;12.84;76.16;99273.91;5093306;27;45909;-78
2021/12/27 01:53:33;;;;;;;;;1.25;1.25;;;;;12.84;75.82;99275.72;5094803;27;45623;-74
2021/12/27 01:56:00;;;;;;;;;1.00;1.00;;;;;12.82;76.29;99262.72;5100689;27;46369;-75
2021/12/27 01:58:27;;;;;;;;;1.00;1.00;;;;;12.85;76.11;99275.53;5104382;27;46184;-75
2021/12/27 02:00:56;;;;;;;;;2.00;2.00;;;;;12.86;76.03;99277.19;5094137;27;45808;-75
2021/12/27 02:03:24;;;;;;;;;2.00;2.00;;;;;12.85;75.93;99277.34;5094369;27;46495;-74
2021/12/27 02:05:50;;;;;;;;;1.25;1.00;;;;;12.88;75.99;99285.75;5094695;27;47343;-75
2021/12/27 02:08:16;;;;;;;;;1.00;1.00;;;;;12.87;75.78;99286.72;5106351;27;45937;-79
2021/12/27 02:10:41;;;;;;;;;1.25;1.25;;;;;12.83;76.00;99266.19;5094063;27;45604;-77
2021/12/27 02:13:08;;;;;;;;;2.25;1.00;;;;;12.87;76.13;99278.03;5094766;27;46331;-78
2021/12/27 02:15:33;;;;;;;;;2.00;1.00;;;;;12.88;75.86;99274.41;5091496;27;48228;-79
2021/12/27 02:17:59;;;;;;;;;1.75;1.00;;;;;12.89;75.86;99287.41;5094274;27;45848;-80
2021/12/27 02:20:28;;;;;;;;;1.00;1.00;;;;;12.90;76.22;99273.25;5093525;27;45621;-78
2021/12/27 02:22:59;;;;;;;;;1.00;1.00;;;;;12.84;75.80;99262.56;5098425;27;47880;-74
2021/12/27 02:25:26;;;;;;;;;1.00;1.00;;;;;12.84;76.09;99252.88;5101474;27;45995;-75
2021/12/27 02:27:51;;;;;;;;;1.50;1.50;;;;;12.87;75.84;99254.38;5095915;27;45617;-77
2021/12/27 02:30:17;;;;;;;;;2.00;1.25;;;;;12.90;75.96;99257.50;5104554;27;45684;-73
2021/12/27 02:32:52;;;;;;;;;1.00;1.00;;;;;12.92;76.12;99258.16;5105422;27;45516;-74
2021/12/27 02:35:28;;;;;;;;;1.00;0.75;;;;;12.90;75.68;99246.19;5109390;27;46012;-75
2021/12/27 02:37:55;;;;;;;;;2.75;2.00;;;;;12.92;75.81;99250.28;5103791;27;45786;-75
2021/12/27 02:40:23;;;;;;;;;2.00;1.00;;;;;12.92;75.88;99257.34;5094315;27;45970;-79
2021/12/27 02:42:56;;;;;;;;;3.00;2.00;;;;;12.90;76.03;99249.59;5096096;27;47539;-77
2021/12/27 02:45:22;;;;;;;;;2.75;2.75;;;;;12.91;76.41;99256.50;5095250;27;46194;-76
2021/12/27 02:47:48;;;;;;;;;2.75;2.00;;;;;12.90;76.26;99256.69;5098592;27;45687;-77
2021/12/27 02:50:13;;;;;;;;;2.00;2.00;;;;;12.90;76.08;99244.34;5093561;27;45826;-74
2021/12/27 02:52:39;;;;;;;;;2.00;2.00;;;;;12.90;76.21;99243.56;5092702;27;45774;-72
2021/12/27 02:55:05;;;;;;;;;2.50;2.00;;;;;12.85;76.07;99233.47;5093260;27;46008;-74
2021/12/27 02:57:30;;;;;;;;;2.50;2.00;;;;;12.87;76.20;99238.59;5099555;27;45723;-74
2021/12/27 02:59:57;;;;;;;;;2.50;2.25;;;;;12.75;75.98;99211.75;5106630;27;45785;-76
2021/12/27 03:02:23;;;;;;;;;2.25;2.00;;;;;12.83;75.98;99230.22;5093226;27;46417;-77
2021/12/27 03:04:48;;;;;;;;;1.75;1.25;;;;;12.78;76.00;99221.16;5107382;27;45954;-75
2021/12/27 03:07:14;;;;;;;;;3.00;2.50;;;;;12.79;76.16;99225.44;5106798;27;45636;-75
2021/12/27 03:09:39;;;;;;;;;3.00;2.25;;;;;12.80;75.94;99222.63;5092937;27;45554;-75
2021/12/27 03:12:09;;;;;;;;;3.25;2.00;;;;;12.78;75.92;99226.41;5093498;27;46872;-75
2021/12/27 03:14:35;;;;;;;;;2.75;1.75;;;;;12.78;76.24;99219.34;5093544;27;47197;-77
2021/12/27 03:17:00;;;;;;;;;2.00;1.00;;;;;12.76;76.09;99215.22;5093839;27;45619;-76
2021/12/27 03:19:26;;;;;;;;;3.75;2.00;;;;;12.77;75.86;99214.22;5092944;27;45884;-76
2021/12/27 03:21:51;;;;;;;;;4.50;2.50;;;;;12.75;75.87;99213.56;5103901;27;45665;-77
2021/12/27 03:24:16;;;;;;;;;6.25;5.00;;;;;12.76;75.85;99220.47;5105728;27;45559;-76
2021/12/27 03:26:42;;;;;;;;;7.75;4.50;;;;;12.75;76.05;99213.56;5093493;27;45832;-76
2021/12/27 03:29:07;;;;;;;;;3.25;2.00;;;;;12.73;76.23;99212.91;5093057;27;46195;-76
2021/12/27 03:31:36;;;;;;;;;11.00;8.50;;;;;12.69;76.10;99212.38;5087144;27;48530;-76
2021/12/27 03:34:02;;;;;;;;;4.25;3.00;;;;;12.72;76.37;99211.25;5098990;27;46121;-80
2021/12/27 03:36:28;;;;;;;;;5.00;5.00;;;;;12.73;76.19;99207.66;5100781;27;45973;-80
2021/12/27 03:38:54;;;;;;;;;3.00;2.25;;;;;12.72;75.90;99201.56;5096778;27;45846;-78
2021/12/27 03:41:22;;;;;;;;;3.00;3.00;;;;;12.72;76.06;99195.50;5100595;27;46543;-79
2021/12/27 03:43:48;;;;;;;;;4.00;2.25;;;;;12.74;76.23;99196.97;5088257;27;47562;-79
2021/12/27 03:46:14;;;;;;;;;2.25;2.00;;;;;12.73;75.81;99194.50;5106421;27;45664;-79
2021/12/27 03:48:40;;;;;;;;;4.50;4.00;;;;;12.72;75.86;99183.19;5092574;27;45818;-77
2021/12/27 03:51:06;;;;;;;;;7.50;3.00;;;;;12.69;75.95;99187.91;5074209;27;46457;-80
2021/12/27 03:53:32;;;;;;;;;3.00;3.00;;;;;12.70;75.82;99176.41;5099893;27;45627;-79
2021/12/27 03:55:58;;;;;;;;;4.00;2.00;;;;;12.70;76.17;99181.66;5100632;27;45762;-79
2021/12/27 03:58:34;;;;;;;;;2.75;2.00;;;;;12.71;75.92;99173.63;5087855;27;46197;-78
2021/12/27 04:01:21;;;;;;;;;2.00;1.00;;;;;12.70;76.16;99174.63;5093983;27;47360;-79
2021/12/27 04:03:49;;;;;;;;;3.25;3.00;;;;;12.72;76.32;99171.84;5114197;27;46270;-79
2021/12/27 04:06:17;;;;;;;;;3.75;3.75;;;;;12.73;75.87;99173.50;5103076;27;45702;-76
2021/12/27 04:08:43;;;;;;;;;2.75;2.00;;;;;12.69;76.28;99161.63;5116319;27;45705;-78
2021/12/27 04:11:08;;;;;;;;;3.75;2.50;;;;;12.73;76.17;99168.22;5111592;27;46281;-79
2021/12/27 04:13:34;;;;;;;;;3.25;2.50;;;;;12.75;75.84;99171.50;5106476;27;46000;-77
2021/12/27 04:16:00;;;;;;;;;1.50;1.50;;;;;12.69;75.98;99157.19;5079423;27;45762;-79
2021/12/27 04:18:26;;;;;;;;;4.25;3.00;;;;;12.75;76.01;99166.25;5095981;27;45655;-78
2021/12/27 04:20:51;;;;;;;;;2.00;2.00;;;;;12.71;76.20;99163.13;5095524;27;46339;-77
2021/12/27 04:23:17;;;;;;;;;4.00;4.00;;;;;12.72;76.05;99154.28;5104254;27;45864;-76
2021/12/27 04:25:42;;;;;;;;;2.00;2.00;;;;;12.72;76.11;99163.97;5098728;27;45702;-77
2021/12/27 04:28:09;;;;;;;;;3.75;2.75;;;;;12.72;75.97;99169.22;5095945;27;45577;-77
2021/12/27 04:30:34;;;;;;;;;3.50;3.00;;;;;12.68;75.97;99157.38;5100196;27;48936;-79
2021/12/27 04:33:00;;;;;;;;;2.00;2.00;;;;;12.71;75.97;99160.50;5103552;27;46177;-76
2021/12/27 04:35:26;;;;;;;;;3.00;2.00;;;;;12.66;76.06;99156.69;5095355;27;45736;-78
2021/12/27 04:37:51;;;;;;;;;2.00;2.00;;;;;12.67;75.96;99159.19;5100318;27;45657;-78
2021/12/27 04:40:21;;;;;;;;;4.00;4.00;;;;;12.65;76.11;99149.78;5111550;27;47340;-77
2021/12/27 04:42:50;;;;;;;;;3.25;3.00;;;;;12.70;75.85;99168.53;5077528;27;47156;-79
2021/12/27 04:45:17;;;;;;;;;2.50;2.00;;;;;12.67;75.79;99160.97;5091151;27;45785;-76
2021/12/27 04:47:43;;;;;;;;;3.00;3.00;;;;;12.69;76.24;99164.25;5085974;27;45814;-79
2021/12/27 04:50:09;;;;;;;;;5.00;3.00;;;;;12.65;76.02;99158.50;5108564;27;46586;-78
2021/12/27 04:52:34;;;;;;;;;3.50;2.50;;;;;12.67;76.13;99166.22;5108643;27;47063;-78
2021/12/27 04:55:00;;;;;;;;;2.25;2.00;;;;;12.68;75.80;99167.88;5096917;27;45690;-77
2021/12/27 04:57:25;;;;;;;;;4.00;4.00;;;;;12.68;75.96;99176.59;5109339;27;46428;-78
2021/12/27 04:59:51;;;;;;;;;5.00;4.00;;;;;12.68;75.97;99181.84;5101383;27;45710;-77
2021/12/27 05:02:17;;;;;;;;;5.00;4.00;;;;;12.65;75.80;99184.78;5095047;27;45707;-77
2021/12/27 05:04:42;;;;;;;;;4.50;3.50;;;;;12.68;75.80;99191.53;5097810;27;46098;-73
2021/12/27 05:07:08;;;;;;;;;5.00;3.50;;;;;12.65;76.02;99191.84;5095013;27;45788;-76
2021/12/27 05:09:33;;;;;;;;;3.50;3.00;;;;;12.69;76.24;99196.63;5094727;27;45534;-75
2021/12/27 05:11:58;;;;;;;;;3.00;3.00;;;;;12.64;75.74;99193.63;5095107;27;46153;-77
2021/12/27 05:14:24;;;;;;;;;3.75;3.25;;;;;12.67;76.14;99195.13;5097985;27;45665;-74
2021/12/27 05:16:49;;;;;;;;;4.25;3.00;;;;;12.65;75.85;99190.03;5100702;27;45909;-75
2021/12/27 05:19:15;;;;;;;;;2.50;2.00;;;;;12.67;75.94;99200.41;5101310;27;45742;-78
2021/12/27 05:21:40;;;;;;;;;4.00;4.00;;;;;12.66;76.08;99188.22;5103945;27;47298;-78
2021/12/27 05:24:07;;;;;;;;;9.50;4.00;;;;;12.65;75.75;99195.28;5095039;27;45648;-76
2021/12/27 05:26:33;;;;;;;;;4.00;3.00;;;;;12.65;75.87;99200.53;5107219;27;45718;-78
2021/12/27 05:28:58;;;;;;;;;4.75;3.75;;;;;12.59;75.95;99188.84;5101295;27;47699;-76
2021/12/27 05:31:23;;;;;;;;;3.00;3.00;;;;;12.60;75.78;99184.44;5096429;27;45864;-78
2021/12/27 05:33:49;;;;;;;;;4.00;4.00;;;;;12.65;76.06;99184.78;5092240;27;46197;-76
2021/12/27 05:36:14;;;;;;;;;7.50;3.75;;;;;12.64;75.91;99164.72;5102716;27;45838;-76
2021/12/27 05:38:40;;;;;;;;;4.00;3.00;;;;;12.65;75.58;99165.56;5094568;27;46199;-75
2021/12/27 05:41:06;;;;;;;;;4.25;3.00;;;;;12.55;75.91;99152.53;5107717;27;46147;-77
2021/12/27 05:43:32;;;;;;;;;4.50;4.50;;;;;12.60;76.08;99142.38;5103997;27;46126;-77
2021/12/27 05:45:57;;;;;;;;;4.50;3.75;;;;;12.66;75.84;99154.06;5089071;27;45665;-75
2021/12/27 05:48:23;;;;;;;;;4.25;3.50;;;;;12.66;75.82;99146.19;5100551;27;46505;-76
2021/12/27 05:50:48;;;;;;;;;4.00;3.00;;;;;12.67;75.87;99130.28;5102214;27;46199;-77
2021/12/27 05:53:14;;;;;;;;;3.75;3.75;;;;;12.68;75.87;99128.47;5108281;27;45733;-79
2021/12/27 05:55:39;;;;;;;;;3.00;3.00;;;;;12.68;76.02;99113.53;5096619;27;45644;-74
2021/12/27 05:58:05;;;;;;;;;5.25;4.00;;;;;12.63;75.99;99101.84;5095426;27;46217;-78
2021/12/27 06:00:31;;;;;;;;;6.25;3.00;;;;;12.61;75.86;99097.56;5107526;27;46750;-78
2021/12/27 06:02:56;;;;;;;;;3.00;2.75;;;;;12.64;76.18;99085.91;5094965;27;45631;-78
2021/12/27 06:05:23;;;;;;;;;5.75;4.00;;;;;12.63;75.86;99082.44;5084489;27;45684;-79
2021/12/27 06:07:49;;;;;;;;;3.75;3.75;;;;;12.64;76.13;99064.88;5099814;27;45831;-77
2021/12/27 06:10:15;;;;;;;;;8.00;5.25;;;;;12.60;75.86;99066.19;5094534;27;46071;-79
2021/12/27 06:12:41;;;;;;;;;5.50;5.00;;;;;12.56;75.80;99043.88;5104155;27;45745;-78
2021/12/27 06:15:08;;;;;;;;;6.00;3.50;;;;;12.58;75.85;99037.44;5076116;27;45941;-77
2021/12/27 06:17:34;;;;;;;;;5.00;3.00;;;;;12.61;75.92;99039.78;5093291;27;45734;-77
2021/12/27 06:20:02;;;;;;;;;5.00;4.00;;;;;12.61;76.23;99029.25;5093739;27;45973;-78
2021/12/27 06:22:28;;;;;;;;;6.00;4.25;;;;;12.60;75.82;99019.72;5105795;27;46091;-78
2021/12/27 06:24:54;;;;;;;;;5.75;5.00;;;;;12.57;75.85;99011.38;5094360;27;46115;-76
2021/12/27 06:27:19;;;;;;;;;5.25;3.75;;;;;12.55;75.86;99003.63;5093434;27;46668;-78
2021/12/27 06:29:45;;;;;;;;;4.00;4.00;;;;;12.53;75.77;98996.88;5098364;27;46506;-78
2021/12/27 06:32:13;;;;;;;;;4.25;3.25;;;;;12.46;76.07;98972.25;5113216;27;45911;-76
2021/12/27 06:34:40;;;;;;;;;5.50;5.00;;;;;12.49;76.00;98983.25;5096541;27;45789;-78
2021/12/27 06:37:06;;;;;;;;;7.00;7.00;;;;;12.49;76.03;98966.66;5096469;27;45702;-80
2021/12/27 06:39:31;;;;;;;;;4.50;4.25;;;;;12.46;75.86;98959.94;5092782;27;45712;-78
2021/12/27 06:41:57;;;;;;;;;5.75;4.75;;;;;12.46;75.68;98954.69;5107322;27;45789;-79
2021/12/27 06:44:22;;;;;;;;;4.00;3.50;;;;;12.41;76.07;98945.66;5093884;27;45582;-78
2021/12/27 06:46:47;;;;;;;;;7.00;5.00;;;;;12.35;75.87;98947.13;5081657;27;46200;-77
2021/12/27 06:49:13;;;;;;;;;3.75;3.75;;;;;12.39;75.85;98958.94;5100900;27;47252;-78
2021/12/27 06:51:38;;;;;;;;;4.25;4.25;;;;;12.36;75.82;98959.25;5111274;27;45729;-79
2021/12/27 06:54:04;;;;;;;;;7.50;4.00;;;;;12.25;75.99;98940.38;5094270;27;46020;-75
2021/12/27 06:56:30;;;;;;;;;7.75;4.00;;;;;12.31;75.81;98960.75;5093440;27;45742;-74
2021/12/27 06:58:56;;;;;;;;;5.00;3.25;;;;;12.28;75.80;98963.66;5096498;27;46080;-75
2021/12/27 07:01:22;;;;;;;;;6.50;4.00;;;;;12.26;75.82;98968.25;5103969;27;46133;-74
2021/12/27 07:03:47;;;;;;;;;7.00;5.00;;;;;12.29;75.66;98970.56;5102250;27;45722;-76
2021/12/27 07:06:13;;;;;;;;;4.00;4.00;;;;;12.30;75.70;98969.59;5104786;27;46339;-74
2021/12/27 07:08:38;;;;;;;;;5.25;5.00;;;;;12.29;75.67;98962.69;5094222;27;46553;-74
2021/12/27 07:11:04;;;;;;;;;4.75;4.50;;;;;12.29;75.64;98963.53;5093638;27;45654;-75
2021/12/27 07:13:29;;;;;;;;;2.00;2.00;;;;;12.28;75.55;98963.66;5093492;27;45843;-75
2021/12/27 07:15:55;;;;;;;;;4.50;3.00;;;;;12.27;75.77;98954.16;5092736;27;47290;-75
2021/12/27 07:18:23;;;;;;;;;4.50;4.00;;;;;12.26;75.59;98961.19;5092608;27;46278;-77
2021/12/27 07:20:51;;;;;;;;;3.00;3.00;;;;;12.25;75.49;98959.59;5093321;27;46062;-79
2021/12/27 07:23:17;;;;;;;;;4.75;4.00;;;;;12.23;75.67;98955.47;5091821;27;45595;-77
2021/12/27 07:25:42;;;;;;;;;4.00;4.00;;;;;12.20;75.70;98948.69;5106015;27;45658;-78
2021/12/27 07:28:07;;;;;;;;;6.25;3.00;;;;;12.16;75.43;98953.47;5099135;27;47324;-78
2021/12/27 07:30:33;;;;;;;;;4.75;4.50;;;;;12.18;75.85;98962.00;5096433;27;45628;-77
2021/12/27 07:32:58;;;;;;;;;3.75;3.75;;;;;12.12;75.66;98953.94;5094113;27;45744;-79
2021/12/27 07:35:27;;;;;;;;;4.25;3.00;;;;;12.17;75.46;98956.91;5090917;27;46858;-77
2021/12/27 07:37:52;;;;;;;;;6.00;3.75;;;;;12.16;75.65;98977.09;5077916;27;46430;-76
2021/12/27 07:40:18;;;;;;;;;4.00;3.00;;;;;12.09;75.58;98970.81;5072496;28;45638;-77
2021/12/27 07:42:43;;;;;;;;;5.00;4.75;;;;;12.13;75.62;98972.19;5072389;27;45850;-75
2021/12/27 07:45:10;;;;;;;;;3.25;3.25;;;;;12.09;75.62;98970.03;5072489;27;46493;-78
2021/12/27 07:47:36;;;;;;;;;5.75;4.00;;;;;12.10;75.59;98961.97;5071944;27;47516;-78
2021/12/27 07:50:05;;;;;;;;;3.50;3.50;;;;;12.10;75.43;98963.78;5072065;27;45704;-78
2021/12/27 07:52:31;;;;;;;;;2.25;1.00;;;;;12.08;75.54;98963.13;5079894;27;45778;-77
2021/12/27 07:54:56;;;;;;;;;3.00;2.25;;;;;12.07;75.65;98971.97;5082819;27;45577;-77
2021/12/27 07:57:21;;;;;;;;;3.00;2.25;;;;;12.01;75.69;98957.69;5082187;27;45668;-77
2021/12/27 07:59:50;;;;;;;;;7.00;4.00;;;;;12.06;75.63;98955.41;5082359;27;45871;-76
2021/12/27 08:02:16;;;;;;;;;4.00;3.00;;;;;12.06;75.40;98959.84;5074947;27;45933;-76
2021/12/27 08:04:43;;;;;;;;;2.25;1.50;;;;;12.05;75.51;98956.38;5053636;28;47551;-78
2021/12/27 08:07:08;;;;;;;;;4.00;3.75;;;;;12.05;75.55;98961.63;5066977;28;48129;-78
2021/12/27 08:09:34;;;;;;;;;4.50;4.00;;;;;12.05;75.50;98952.94;5082805;27;45937;-78
2021/12/27 08:11:59;;;;;;;;;3.75;3.00;;;;;12.04;75.45;98953.91;5084803;27;45706;-78
2021/12/27 08:14:25;;;;;;;;;2.50;2.50;;;;;12.04;75.42;98952.09;5072435;28;46434;-76
2021/12/27 08:16:50;;;;;;;;;6.00;2.00;;;;;12.01;75.42;98949.81;5071745;27;46212;-77
2021/12/27 08:19:15;;;;;;;;;3.75;3.00;;;;;12.03;75.19;98953.13;5071762;27;45868;-79
2021/12/27 08:21:41;;;;;;;;;3.25;3.25;;;;;12.05;75.53;98947.69;5072004;28;45741;-78
2021/12/27 08:24:08;;;;;;;;;2.00;2.00;;;;;12.03;75.31;98942.63;5078443;27;46399;-76
2021/12/27 08:26:33;;;;;;;;;4.75;3.00;;;;;12.06;75.25;98941.47;5071353;27;46378;-80
2021/12/27 08:29:01;;;;;;;;;3.00;2.00;;;;;12.06;75.46;98947.53;5073641;27;45732;-78
2021/12/27 08:31:26;;;;;;;;;3.00;3.00;;;;;12.05;75.33;98935.38;5085497;27;45918;-75
2021/12/27 08:33:52;;;;;;;;;4.00;3.50;;;;;12.07;75.25;98940.47;5071638;27;46782;-77
2021/12/27 08:36:19;;;;;;;;;3.50;3.00;;;;;12.06;75.29;98936.22;5106867;27;47162;-78
2021/12/27 08:38:46;;;;;;;;;3.00;2.75;;;;;12.06;75.17;98934.41;5100573;27;45534;-77
2021/12/27 08:41:12;;;;;;;;;3.75;3.00;;;;;12.11;75.36;98941.78;5092235;27;45732;-79
2021/12/27 08:43:37;;;;;;;;;2.75;2.75;;;;;12.10;75.07;98935.72;5092115;27;46593;-78
2021/12/27 08:46:03;;;;;;;;;3.00;3.00;;;;;12.12;75.26;98932.94;5100649;27;46110;-79
2021/12/27 08:48:28;;;;;;;;;3.00;3.00;;;;;12.11;75.12;98932.13;5091779;27;45802;-77
2021/12/27 08:50:53;;;;;;;;;3.00;3.00;;;;;12.12;75.03;98928.53;5094549;27;45737;-78
2021/12/27 08:53:19;;;;;;;;;2.75;2.25;;;;;12.12;75.11;98928.53;5095775;27;45976;-77
2021/12/27 08:55:44;;;;;;;;;2.00;2.00;;;;;12.07;75.05;98909.81;5094954;27;45766;-77
2021/12/27 08:58:11;;;;;;;;;6.25;3.75;;;;;12.09;75.06;98907.81;5095503;27;46109;-77
2021/12/27 09:00:36;;;;;;;;;3.75;2.50;;;;;12.12;74.88;98911.94;5106892;27;45667;-73
2021/12/27 09:03:02;;;;;;;;;3.00;3.00;;;;;12.11;75.08;98913.75;5096579;27;45615;-76
2021/12/27 09:05:27;;;;;;;;;3.50;2.25;;;;;12.11;75.24;98911.13;5103480;27;47428;-77
2021/12/27 09:07:53;;;;;;;;;3.00;2.75;;;;;12.12;75.12;98914.56;5094452;27;45707;-77
2021/12/27 09:10:18;;;;;;;;;4.00;3.25;;;;;12.12;74.90;98912.78;5095461;27;45746;-75
2021/12/27 09:12:44;;;;;;;;;5.25;2.75;;;;;12.10;74.89;98914.72;5095271;27;45656;-74
2021/12/27 09:15:11;;;;;;;;;2.75;2.75;;;;;12.15;75.03;98914.25;5095110;27;45831;-74
2021/12/27 09:17:37;;;;;;;;;3.50;3.25;;;;;12.15;75.17;98912.44;5094273;27;45513;-75
2021/12/27 09:20:04;;;;;;;;;5.50;3.50;;;;;12.17;74.76;98917.53;5105738;27;45855;-77
2021/12/27 09:22:30;;;;;;;;;3.75;3.00;;;;;12.17;75.13;98909.66;5099226;27;45683;-74
2021/12/27 09:24:55;;;;;;;;;3.25;3.00;;;;;12.14;75.22;98902.13;5110775;27;48258;-75
2021/12/27 09:27:21;;;;;;;;;4.00;3.00;;;;;12.18;74.93;98917.38;5104259;27;45536;-77
2021/12/27 09:29:46;;;;;;;;;3.50;2.50;;;;;12.18;74.93;98912.13;5098709;27;45691;-75
2021/12/27 09:32:13;;;;;;;;;3.00;2.00;;;;;12.15;74.67;98909.81;5104376;27;45901;-76
2021/12/27 09:34:39;;;;;;;;;3.50;3.00;;;;;12.18;74.76;98901.63;5098803;27;46247;-76
2021/12/27 09:37:06;;;;;;;;;2.00;2.00;;;;;12.19;74.81;98905.09;5099720;27;46036;-76
2021/12/27 09:39:33;;;;;;;;;2.00;2.00;;;;;12.19;74.96;98902.47;5094502;27;45790;-75
2021/12/27 09:41:59;;;;;;;;;2.50;2.50;;;;;12.12;74.85;98891.78;5094997;27;46873;-77
2021/12/27 09:44:25;;;;;;;;;3.00;3.00;;;;;12.14;74.91;98899.50;5094257;27;48238;-77
2021/12/27 09:46:50;;;;;;;;;3.00;3.00;;;;;12.16;74.83;98898.34;5094312;27;46102;-77
2021/12/27 09:49:18;;;;;;;;;3.50;2.00;;;;;12.20;75.02;98904.06;5094426;27;45686;-76
2021/12/27 09:51:44;;;;;;;;;3.00;2.00;;;;;12.16;74.85;98889.63;5094758;27;46414;-80
2021/12/27 09:54:10;;;;;;;;;2.00;2.00;;;;;12.22;74.72;98893.41;5104412;27;46789;-77
2021/12/27 09:56:36;;;;;;;;;3.00;3.00;;;;;12.17;74.88;98888.66;5094573;27;45999;-79
2021/12/27 09:59:02;;;;;;;;;2.00;2.00;;;;;12.20;74.92;98904.91;5098301;27;45644;-78
2021/12/27 10:01:28;;;;;;;;;3.00;3.00;;;;;12.19;74.75;98892.78;5103687;27;45732;-78
2021/12/27 10:03:56;;;;;;;;;3.50;3.00;;;;;12.19;75.11;98905.09;5094247;27;46107;-78
2021/12/27 10:06:23;;;;;;;;;3.50;2.75;;;;;12.17;74.97;98899.97;5100928;27;46214;-77
2021/12/27 10:08:51;;;;;;;;;4.00;2.25;;;;;12.16;74.83;98895.72;5093725;27;45546;-78
2021/12/27 10:11:18;;;;;;;;;3.00;3.00;;;;;12.12;74.97;98888.31;5109535;27;46984;-77
2021/12/27 10:13:57;;;;;;;;;2.00;2.00;;;;;12.13;74.96;98895.22;5096126;27;46351;-78
2021/12/27 10:16:22;;;;;;;;;3.00;2.25;;;;;12.07;74.87;98901.09;5093860;27;45702;-78
2021/12/27 10:18:56;;;;;;;;;2.75;2.50;;;;;12.09;75.10;98886.03;5093837;27;45882;-76
2021/12/27 10:21:21;;;;;;;;;2.75;2.00;;;;;12.08;75.11;98898.34;5094034;27;46795;-77
2021/12/27 10:23:47;;;;;;;;;2.00;2.00;;;;;12.03;75.19;98887.50;5101589;27;45817;-76
2021/12/27 10:26:17;;;;;;;;;2.00;2.00;;;;;12.03;74.93;98882.25;5093674;27;45578;-78
2021/12/27 10:28:43;;;;;;;;;2.50;2.50;;;;;12.04;75.06;98891.75;5105296;27;45948;-77
2021/12/27 10:31:08;;;;;;;;;3.00;2.25;;;;;12.05;75.01;98890.75;5095252;27;46456;-75
2021/12/27 10:33:36;;;;;;;;;3.00;2.00;;;;;11.98;75.04;98873.22;5105994;27;47388;-79
2021/12/27 10:36:02;;;;;;;;;2.50;2.50;;;;;12.01;75.08;98881.56;5093357;27;45757;-77
2021/12/27 10:38:36;;;;;;;;;4.00;3.00;;;;;12.03;75.41;98876.16;5103036;27;45738;-76
2021/12/27 10:41:09;;;;;;;;;3.50;3.00;;;;;12.02;75.13;98874.53;5092656;27;48845;-79
2021/12/27 10:43:36;;;;;;;;;1.00;1.00;;;;;12.01;75.31;98875.50;5103327;27;46679;-77
2021/12/27 10:46:04;;;;;;;;;2.00;2.00;;;;;12.03;75.11;98873.53;5107254;27;45799;-74
2021/12/27 10:48:39;;;;;;;;;3.25;3.00;;;;;12.04;75.22;98881.22;5093762;27;45734;-80
2021/12/27 10:51:05;;;;;;;;;3.25;2.00;;;;;12.04;75.05;98881.22;5093675;27;46382;-79
2021/12/27 10:53:51;;;;;;;;;4.00;3.00;;;;;11.98;75.12;98870.59;5093826;27;47072;-77
2021/12/27 10:56:19;;;;;;;;;2.00;2.00;;;;;12.02;75.38;98869.28;5102760;27;46106;-76
2021/12/27 10:58:56;;;;;;;;;3.00;2.00;;;;;11.92;75.30;98863.34;5099000;27;45702;-77
2021/12/27 11:01:26;;;;;;;;;2.75;2.00;;;;;12.02;75.41;98877.97;5112270;27;46811;-75
2021/12/27 11:03:55;;;;;;;;;4.00;3.00;;;;;12.03;75.16;98881.41;5100064;27;47069;-75
2021/12/27 11:06:24;;;;;;;;;3.00;3.00;;;;;12.02;75.35;98880.59;5107744;27;46124;-77
2021/12/27 11:08:52;;;;;;;;;3.00;3.00;;;;;12.04;75.50;98904.03;5099997;27;46088;-77
2021/12/27 11:11:18;;;;;;;;;3.75;3.75;;;;;12.03;75.46;98905.03;5101891;27;46314;-75
2021/12/27 11:13:47;;;;;;;;;4.00;4.00;;;;;12.04;75.45;98899.59;5098419;27;46265;-78
2021/12/27 11:16:13;;;;;;;;;6.50;4.25;;;;;12.06;75.46;98902.09;5105629;27;46057;-74
2021/12/27 11:18:38;;;;;;;;;5.00;4.00;;;;;12.03;75.40;98886.66;5100354;27;45806;-76
2021/12/27 11:21:10;;;;;;;;;6.00;5.00;;;;;12.02;75.42;98885.03;5102037;27;47242;-77
2021/12/27 11:23:37;;;;;;;;;4.75;4.75;;;;;12.09;75.53;98899.16;5106884;27;46032;-77
2021/12/27 11:26:05;;;;;;;;;3.25;3.00;;;;;12.09;75.50;98899.94;5113536;27;45711;-78
2021/12/27 11:28:36;;;;;;;;;5.50;4.00;;;;;12.10;75.49;98893.72;5105412;27;45927;-78
2021/12/27 11:31:23;;;;;;;;;4.00;3.00;;;;;12.13;75.45;98897.84;5093827;27;46321;-77